Nearby METAR Reports

 

ENCN - Kristiansand/Kje, Norway
Distance from station: N 17km
Oppdatert: 06/12/2022 03:50
Overskyet
Overskyet
 Vind fra NØ
Vind: NØ 11 km/h
Temperatur: -5°C
Wind Chill: -9°C
Duggpunkt: -6°C
Fuktighet: 93%
Barometer: 1019 hPa
Clouds: Overskyet
Visibility: 10 km
Cloud details: Delvis skyet 1798 m
Overskyet 4572 m
2022/12/06 02:50 ENCN 060250Z AUTO 05006KT 9999 SCT059/// OVC150/// M05/M06 Q1019
EKSN - Sindal Airport, Denmark
Distance from station: ØSØ 145km
Oppdatert: 30/12/2021 14:50
NOT Current
Mist, Hovedsaklig skyet
Mist, Hovedsaklig skyet
 Vind fra SV
Vind: SV 26 km/h
Temperatur: 7°C
Wind Chill: 3°C
Duggpunkt: 7°C
Fuktighet: 100%
Barometer: 999 hPa
Oversikt: Mist
Clouds: Hovedsaklig skyet
Visibility: 5 km
Cloud details: Delvis skyet 183 m
Hovedsaklig skyet 244 m
2021/12/30 13:50 EKSN 301350Z 23014KT 4500 BR SCT006 BKN008 07/07 Q0999
 
EKYT - Alborg, Denmark
Distance from station: SØ 153km
Oppdatert: 06/12/2022 03:50
Overskyet
Overskyet
 Vind fra N
Vind: N 6 km/h
Temperatur: 0°C
Duggpunkt: 0°C
Fuktighet: 100%
Barometer: 1019 hPa
Clouds: Overskyet
Visibility: 10 km
Cloud details: Overskyet 853 m
2022/12/06 02:50 EKYT 060250Z AUTO 01003KT 9999 OVC028/// 00/M00 Q1019
ENSN - Skien/Geiterygge, Norway
Distance from station: NØ 153km
Oppdatert: 09/11/2015 09:50
NOT Current
Klart
Klart
 Vind fra SSV
Vind: SSV 19 km/h, Vindkast: 41 km/h
Temperatur: 7°C
Wind Chill: 4°C
Duggpunkt: 3°C
Fuktighet: 76%
Barometer: 1000 hPa
Oversikt: Klart
Visibility: greater than 10 km
2015/11/09 08:50 ENSN 090850Z 20010G22KT 150V240 CAVOK 07/03 Q1000
 
ENZV - Stavanger/Sola(A, Norway
Distance from station: NV 166km
Oppdatert: 06/12/2022 03:50
Hovedsaklig skyet
Hovedsaklig skyet
 Vind fra calm
Vind: Stille
Temperatur: 0°C
Duggpunkt: -1°C
Fuktighet: 93%
Barometer: 1020 hPa
Clouds: Hovedsaklig skyet
Visibility: 10 km
Cloud details: Delvis skyet 305 m
Hovedsaklig skyet 457 m
2022/12/06 02:50 ENZV 060250Z 00000KT 9999 SCT010 BKN015 M00/M01 Q1020
ENNO - Notodden, Norway
Distance from station: NNØ 182km
Oppdatert: 05/12/2022 18:50
NOT Current
Klart
Klart
 Vind fra VNV
Vind: VNV 4 km/h
Temperatur: -7°C
Duggpunkt: -10°C
Fuktighet: 79%
Barometer: 1026 hPa
Oversikt: Klart
Visibility: greater than 10 km
2022/12/05 17:50 ENNO 051750Z 30002KT CAVOK M07/M10 Q1026
 
ENTO - Torp (civ/Nor-Af, Norway
Distance from station: NØ 183km
Oppdatert: 06/12/2022 03:50
Klart
Klart
 Vind fra N
Vind: N 13 km/h
Temperatur: -6°C
Wind Chill: -12°C
Duggpunkt: -7°C
Fuktighet: 93%
Barometer: 1019 hPa
Clouds: Klart
Visibility: 10 km
2022/12/06 02:50 ENTO 060250Z AUTO 36007KT 9999 NCD M06/M07 Q1019
EKKA - Karup (dan-Afb), Denmark
Distance from station: SSØ 209km
Oppdatert: 06/12/2022 03:50
Overskyet
Overskyet
 Vind fra NNV
Vind: NNV 6 km/h
Temperatur: 0°C
Duggpunkt: 0°C
Fuktighet: 100%
Barometer: 1018 hPa
Clouds: Overskyet
Visibility: 8 km
Cloud details: Overskyet 884 m
2022/12/06 02:50 EKKA 060250Z AUTO 33003KT 8000 OVC029/// 00/M00 Q1018
 
ENHD - Haugesund/Karmoy, Norway
Distance from station: NV 216km
Oppdatert: 06/12/2022 03:50
Few Clouds
Few Clouds
 Vind fra N
Vind: N 20 km/h
Temperatur: 3°C
Wind Chill: -2°C
Duggpunkt: 1°C
Fuktighet: 87%
Barometer: 1020 hPa
Clouds: Few Clouds
Visibility: 10 km
Cloud details: Few Clouds 3658 m
2022/12/06 02:50 ENHD 060250Z AUTO 01011KT 9999 FEW120/// 03/01 Q1020
ENRY - Rygge (nor-Afb), Norway
Distance from station: NØ 216km
Oppdatert: 06/12/2022 03:50
Klart
Klart
 Vind fra N
Vind: N 7 km/h
Temperatur: -5°C
Wind Chill: -8°C
Duggpunkt: -7°C
Fuktighet: 86%
Barometer: 1019 hPa
Clouds: Klart
Visibility: 10 km
2022/12/06 02:50 ENRY 060250Z AUTO 35004KT 9999NDV NCD M05/M07 Q1019
 
ESGP - Goteborg/Save (a, Sweden
Distance from station: Ø 230km
Oppdatert: 06/12/2022 03:50
Klart
Klart
 Vind fra N
Vind: N 4 km/h
Temperatur: -2°C
Duggpunkt: -4°C
Fuktighet: 86%
Barometer: 1018 hPa
Clouds: Klart
Visibility: 10 km
2022/12/06 02:50 ESGP 060250Z AUTO 01002KT 9999 NCD M02/M04 Q1018
EKVJ - Stauning Airport, Denmark
Distance from station: S 233km
Oppdatert: 05/12/2022 15:50
NOT Current
Hovedsaklig skyet
Hovedsaklig skyet
 Vind fra NØ
Vind: NØ 19 km/h
Temperatur: 3°C
Wind Chill: -2°C
Duggpunkt: 1°C
Fuktighet: 87%
Barometer: 1022 hPa
Clouds: Hovedsaklig skyet
Visibility: 10 km
Cloud details: Hovedsaklig skyet 305 m
2022/12/05 14:50 EKVJ 051450Z 05010KT 9999 BKN010 03/01 Q1022
 
ENSO - Stord/Soerstokke, Norway
Distance from station: NV 246km
Oppdatert: 05/12/2022 17:50
NOT Current
Hovedsaklig skyet
Hovedsaklig skyet
 Vind fra S
Vind: S 6 km/h
Temperatur: 2°C
Duggpunkt: 1°C
Fuktighet: 93%
Barometer: 1026 hPa
Clouds: Hovedsaklig skyet
Visibility: 10 km
Cloud details: Hovedsaklig skyet 914 m
2022/12/05 16:50 ENSO 051650Z 17003KT 9999 BKN030 02/01 Q1026
EKAH - Tirstrup (civ/Mi, Denmark
Distance from station: SØ 252km
Oppdatert: 06/12/2022 03:50
Overskyet
Overskyet
 Vind fra NNV
Vind: NNV 7 km/h
Temperatur: 3°C
Wind Chill: 1°C
Duggpunkt: 2°C
Fuktighet: 93%
Barometer: 1018 hPa
Clouds: Overskyet
Visibility: 10 km
Cloud details: Overskyet 427 m
2022/12/06 02:50 EKAH 060250Z AUTO 33004KT 9999 OVC014/// 03/02 Q1018
 
ESGT - Trollhattan (pvt, Sweden
Distance from station: Ø 255km
Oppdatert: 06/12/2022 03:50
Hovedsaklig skyet
Hovedsaklig skyet
 Vind fra N
Vind: N 6 km/h
Temperatur: -3°C
Duggpunkt: -4°C
Fuktighet: 93%
Barometer: 1018 hPa
Clouds: Hovedsaklig skyet
Visibility: 10 km
Cloud details: Delvis skyet 274 m
Hovedsaklig skyet 366 m
2022/12/06 02:50 ESGT 060250Z AUTO 36003KT 9999 R15///// R33///// SCT009/// BKN012/// M03/M04 Q1018
ESGG - Goteborg/Landvet, Sweden
Distance from station: Ø 257km
Oppdatert: 06/12/2022 03:50
Overskyet
Overskyet
 Vind fra N
Vind: N 9 km/h
Temperatur: -1°C
Wind Chill: -4°C
Duggpunkt: -3°C
Fuktighet: 86%
Barometer: 1017 hPa
Clouds: Overskyet
Visibility: 10 km
Cloud details: Delvis skyet 610 m
Overskyet 732 m
2022/12/06 02:50 ESGG 060250Z 01005KT 9999 SCT020 OVC024 M01/M03 Q1017
 
EKBI - Billund Airport, Denmark
Distance from station: SSØ 269km
Oppdatert: 06/12/2022 03:50
Overskyet
Overskyet
 Vind fra N
Vind: N 9 km/h
Temperatur: 1°C
Wind Chill: -2°C
Duggpunkt: 1°C
Fuktighet: 100%
Barometer: 1018 hPa
Clouds: Overskyet
Visibility: 10 km
Cloud details: Hovedsaklig skyet 91 m
Overskyet 853 m
2022/12/06 02:50 EKBI 060250Z AUTO 35005KT 9999 BKN003/// OVC028/// 01/01 Q1018
EKHN - Horns Rev B Heli, Denmark
Distance from station: S 274km
Oppdatert: 09/08/2016 14:20
NOT Current
Few Clouds
Few Clouds
 Vind fra VNV
Vind: VNV 50 km/h, Vindkast: 72 km/h
Temperatur: 14°C
Duggpunkt: 10°C
Fuktighet: 77%
Barometer: 1018 hPa
Clouds: Few Clouds
Visibility: 10 km
Cloud details: Few Clouds 1158 m
Few Clouds 2438 m
2016/08/09 12:20 EKHN 091220Z AUTO 29027G39KT 270V340 9999NDV FEW038/// FEW080/// 14/10 Q1018
 
ESIB - Satenas (swe-Afb, Sweden
Distance from station: Ø 277km
Oppdatert: 06/12/2022 03:50
Few Clouds
Few Clouds
 Vind fra NNV
Vind: NNV 11 km/h
Temperatur: -2°C
Wind Chill: -6°C
Duggpunkt: -3°C
Fuktighet: 93%
Barometer: 1018 hPa
Clouds: Few Clouds
Visibility: 10 km
Cloud details: Few Clouds 549 m
2022/12/06 02:50 ESIB 060250Z AUTO 34006KT 9999 FEW018/// M02/M03 Q1018
EKHR - Horns Rev B Heli, Denmark
Distance from station: S 282km
Oppdatert: 04/10/2016 06:20
NOT Current
Klart
Klart
 Vind fra Ø
Vind: Ø 4 km/h
Temperatur: 11°C
Duggpunkt: -49°C
Fuktighet: 0%
Barometer: 1038 hPa
Clouds: Klart
Visibility: 10 km
2016/10/04 04:20 EKHR 040420Z AUTO 08002KT 9999NDV NCD 11/M49 Q1038